Marchand, Pennsylvania
Current Conditions -  °F | °C
As of 7:15 AM on Thursday 29 Jan 2015 (Local Time) from KIDI Reporting Station
Overcast Overcast  
Wind Chill: 18°   Ceiling: 7500
Heat Index: 27°   Visibility: 10mi
Dew Point:   Wind: 8mph
Humidity: 40%   Direction: 180°S
Pressure: 30.13"   Gusts: NA
Location:  40.86°N, 79.02°W
Report Text: KIDI 291215Z AUTO 18007KT 10SM BKN075 OVC100 M03/M15 A3013 RMK A01
Loading
Personal Weather Stations






























Interactive Weather Map New forecast layout! Learn more

10-Day Weather Forecast

Advertisements
Track Severe Weather on mobile